Terminal Aerodrome Forecast
Issued by NWS

Home | Current Version | Previous Version | Text Only | Print | Product List | Glossary On
Versions: 1 2 3 4 5 6 7 8 9 10 11 12 13 14
407
FTUS41 KBTV 201136
TAFMSS
TAF
KMSS 201136Z 2012/2112 VRB03KT 1/4SM FG VV001
      TEMPO 2012/2013 3SM BR SCT005
     FM201300 05007KT P6SM SCT050
     FM202000 05008KT P6SM SCT150
     FM210500 05004KT 2SM BR FEW250=

USA.gov is the U.S. government's official web portal to all federal, state and local government web resources and services.